sensor_id;sensor_type;location;lat;lon;timestamp;temperature;humidity
12827;DHT22;66927;48.812;9.118;2023-07-13T00:00:34;22.60;94.40
12827;DHT22;66927;48.812;9.118;2023-07-13T00:03:02;22.50;94.30
12827;DHT22;66927;48.812;9.118;2023-07-13T00:05:28;22.40;94.30
12827;DHT22;66927;48.812;9.118;2023-07-13T00:07:54;22.60;94.30
12827;DHT22;66927;48.812;9.118;2023-07-13T00:10:21;22.60;94.40
12827;DHT22;66927;48.812;9.118;2023-07-13T00:12:48;22.60;93.90
12827;DHT22;66927;48.812;9.118;2023-07-13T00:15:19;22.60;93.90
12827;DHT22;66927;48.812;9.118;2023-07-13T00:17:53;22.70;93.70
12827;DHT22;66927;48.812;9.118;2023-07-13T00:20:21;22.70;93.80
12827;DHT22;66927;48.812;9.118;2023-07-13T00:22:48;22.70;94.00
12827;DHT22;66927;48.812;9.118;2023-07-13T00:25:15;22.80;93.80
12827;DHT22;66927;48.812;9.118;2023-07-13T00:27:42;22.70;93.60
12827;DHT22;66927;48.812;9.118;2023-07-13T00:30:08;22.80;93.50
12827;DHT22;66927;48.812;9.118;2023-07-13T00:32:34;22.60;93.50
12827;DHT22;66927;48.812;9.118;2023-07-13T00:35:01;22.60;93.50
12827;DHT22;66927;48.812;9.118;2023-07-13T00:37:26;22.60;93.50
12827;DHT22;66927;48.812;9.118;2023-07-13T00:39:52;22.50;93.40
12827;DHT22;66927;48.812;9.118;2023-07-13T00:42:18;22.50;93.50
12827;DHT22;66927;48.812;9.118;2023-07-13T00:47:38;22.30;93.30
12827;DHT22;66927;48.812;9.118;2023-07-13T00:50:06;22.20;93.40
12827;DHT22;66927;48.812;9.118;2023-07-13T00:52:36;22.30;93.40
12827;DHT22;66927;48.812;9.118;2023-07-13T00:55:03;22.40;93.30
12827;DHT22;66927;48.812;9.118;2023-07-13T00:57:29;22.30;93.10
12827;DHT22;66927;48.812;9.118;2023-07-13T00:59:58;22.30;93.00
12827;DHT22;66927;48.812;9.118;2023-07-13T01:02:25;22.20;92.90
12827;DHT22;66927;48.812;9.118;2023-07-13T01:04:51;22.30;92.80
12827;DHT22;66927;48.812;9.118;2023-07-13T01:07:18;22.40;93.00
12827;DHT22;66927;48.812;9.118;2023-07-13T01:09:44;22.40;92.90
12827;DHT22;66927;48.812;9.118;2023-07-13T01:12:11;22.50;93.10
12827;DHT22;66927;48.812;9.118;2023-07-13T01:14:36;22.60;92.70
12827;DHT22;66927;48.812;9.118;2023-07-13T01:17:03;22.60;92.40
12827;DHT22;66927;48.812;9.118;2023-07-13T01:19:37;22.50;92.50
12827;DHT22;66927;48.812;9.118;2023-07-13T01:22:12;22.50;92.40
12827;DHT22;66927;48.812;9.118;2023-07-13T01:24:39;22.50;92.80
12827;DHT22;66927;48.812;9.118;2023-07-13T01:27:07;22.50;92.40
12827;DHT22;66927;48.812;9.118;2023-07-13T01:29:35;22.50;92.50
12827;DHT22;66927;48.812;9.118;2023-07-13T01:32:08;22.40;92.30
12827;DHT22;66927;48.812;9.118;2023-07-13T01:34:34;22.30;92.40
12827;DHT22;66927;48.812;9.118;2023-07-13T01:36:59;22.20;92.50
12827;DHT22;66927;48.812;9.118;2023-07-13T01:39:25;22.20;92.70
12827;DHT22;66927;48.812;9.118;2023-07-13T01:41:51;22.10;92.50
12827;DHT22;66927;48.812;9.118;2023-07-13T01:44:17;22.00;92.50
12827;DHT22;66927;48.812;9.118;2023-07-13T01:46:43;21.90;92.50
12827;DHT22;66927;48.812;9.118;2023-07-13T01:49:08;21.90;92.50
12827;DHT22;66927;48.812;9.118;2023-07-13T01:51:34;22.00;92.50
12827;DHT22;66927;48.812;9.118;2023-07-13T01:54:00;22.10;92.40
12827;DHT22;66927;48.812;9.118;2023-07-13T01:56:25;22.00;92.10
12827;DHT22;66927;48.812;9.118;2023-07-13T01:58:52;22.00;92.30
12827;DHT22;66927;48.812;9.118;2023-07-13T02:01:18;22.10;92.40
12827;DHT22;66927;48.812;9.118;2023-07-13T02:03:44;22.10;92.20
12827;DHT22;66927;48.812;9.118;2023-07-13T02:06:11;22.10;92.10
12827;DHT22;66927;48.812;9.118;2023-07-13T02:08:37;22.10;92.40
12827;DHT22;66927;48.812;9.118;2023-07-13T02:11:03;22.20;92.10
12827;DHT22;66927;48.812;9.118;2023-07-13T02:13:30;22.20;92.10
12827;DHT22;66927;48.812;9.118;2023-07-13T02:15:56;22.20;92.10
12827;DHT22;66927;48.812;9.118;2023-07-13T02:18:21;22.30;92.20
12827;DHT22;66927;48.812;9.118;2023-07-13T02:20:47;22.30;92.30
12827;DHT22;66927;48.812;9.118;2023-07-13T02:23:12;22.30;92.00
12827;DHT22;66927;48.812;9.118;2023-07-13T02:25:39;22.20;91.90
12827;DHT22;66927;48.812;9.118;2023-07-13T02:28:06;22.20;91.90
12827;DHT22;66927;48.812;9.118;2023-07-13T02:30:33;22.20;92.30
12827;DHT22;66927;48.812;9.118;2023-07-13T02:32:59;22.20;92.00
12827;DHT22;66927;48.812;9.118;2023-07-13T02:35:25;22.20;92.00
12827;DHT22;66927;48.812;9.118;2023-07-13T02:37:50;22.20;92.10
12827;DHT22;66927;48.812;9.118;2023-07-13T02:40:16;22.20;92.20
12827;DHT22;66927;48.812;9.118;2023-07-13T02:42:42;22.20;92.40
12827;DHT22;66927;48.812;9.118;2023-07-13T02:45:08;22.20;92.40
12827;DHT22;66927;48.812;9.118;2023-07-13T02:47:35;22.20;92.60
12827;DHT22;66927;48.812;9.118;2023-07-13T02:50:01;22.20;92.60
12827;DHT22;66927;48.812;9.118;2023-07-13T02:52:30;22.20;92.40
12827;DHT22;66927;48.812;9.118;2023-07-13T02:54:55;22.20;92.70
12827;DHT22;66927;48.812;9.118;2023-07-13T02:57:21;22.10;93.00
12827;DHT22;66927;48.812;9.118;2023-07-13T02:59:46;22.00;93.10
12827;DHT22;66927;48.812;9.118;2023-07-13T03:02:12;21.90;93.30
12827;DHT22;66927;48.812;9.118;2023-07-13T03:04:38;21.90;93.50
12827;DHT22;66927;48.812;9.118;2023-07-13T03:07:07;21.90;93.70
12827;DHT22;66927;48.812;9.118;2023-07-13T03:09:33;21.90;93.70
12827;DHT22;66927;48.812;9.118;2023-07-13T03:12:00;22.00;93.80
12827;DHT22;66927;48.812;9.118;2023-07-13T03:14:26;21.90;93.70
12827;DHT22;66927;48.812;9.118;2023-07-13T03:16:52;22.00;93.50
12827;DHT22;66927;48.812;9.118;2023-07-13T03:19:18;21.90;93.50
12827;DHT22;66927;48.812;9.118;2023-07-13T03:21:44;21.80;93.40
12827;DHT22;66927;48.812;9.118;2023-07-13T03:27:31;21.80;93.30
12827;DHT22;66927;48.812;9.118;2023-07-13T03:29:57;21.70;93.30
12827;DHT22;66927;48.812;9.118;2023-07-13T03:32:23;21.60;93.50
12827;DHT22;66927;48.812;9.118;2023-07-13T03:34:50;21.50;93.50
12827;DHT22;66927;48.812;9.118;2023-07-13T03:37:16;21.50;93.80
12827;DHT22;66927;48.812;9.118;2023-07-13T03:39:41;21.40;93.80
12827;DHT22;66927;48.812;9.118;2023-07-13T03:42:07;21.40;94.00
12827;DHT22;66927;48.812;9.118;2023-07-13T03:44:35;21.50;93.90
12827;DHT22;66927;48.812;9.118;2023-07-13T03:47:00;21.50;94.20
12827;DHT22;66927;48.812;9.118;2023-07-13T03:49:26;21.50;94.10
12827;DHT22;66927;48.812;9.118;2023-07-13T03:51:53;21.60;94.00
12827;DHT22;66927;48.812;9.118;2023-07-13T03:54:19;21.60;94.10
12827;DHT22;66927;48.812;9.118;2023-07-13T03:56:44;21.60;94.20
12827;DHT22;66927;48.812;9.118;2023-07-13T03:59:10;21.70;94.40
12827;DHT22;66927;48.812;9.118;2023-07-13T04:01:35;21.70;94.40
12827;DHT22;66927;48.812;9.118;2023-07-13T04:04:01;21.60;94.10
12827;DHT22;66927;48.812;9.118;2023-07-13T04:06:28;21.60;94.50
12827;DHT22;66927;48.812;9.118;2023-07-13T04:08:57;21.60;94.20
12827;DHT22;66927;48.812;9.118;2023-07-13T04:11:25;21.60;94.30
12827;DHT22;66927;48.812;9.118;2023-07-13T04:13:51;21.70;94.60
12827;DHT22;66927;48.812;9.118;2023-07-13T04:16:18;21.70;94.60
12827;DHT22;66927;48.812;9.118;2023-07-13T04:18:45;21.70;94.10
12827;DHT22;66927;48.812;9.118;2023-07-13T04:21:12;21.70;94.20
12827;DHT22;66927;48.812;9.118;2023-07-13T04:23:38;21.70;94.40
12827;DHT22;66927;48.812;9.118;2023-07-13T04:26:04;21.70;94.40
12827;DHT22;66927;48.812;9.118;2023-07-13T04:28:30;21.70;94.60
12827;DHT22;66927;48.812;9.118;2023-07-13T04:30:56;21.70;94.80
12827;DHT22;66927;48.812;9.118;2023-07-13T04:33:23;21.70;94.70
12827;DHT22;66927;48.812;9.118;2023-07-13T04:35:51;21.70;94.80
12827;DHT22;66927;48.812;9.118;2023-07-13T04:38:22;21.70;95.10
12827;DHT22;66927;48.812;9.118;2023-07-13T04:40:50;21.60;94.90
12827;DHT22;66927;48.812;9.118;2023-07-13T04:43:16;21.60;95.20
12827;DHT22;66927;48.812;9.118;2023-07-13T04:45:44;21.60;95.20
12827;DHT22;66927;48.812;9.118;2023-07-13T04:48:09;21.60;95.30
12827;DHT22;66927;48.812;9.118;2023-07-13T04:50:38;21.60;95.10
12827;DHT22;66927;48.812;9.118;2023-07-13T04:53:04;21.50;94.90
12827;DHT22;66927;48.812;9.118;2023-07-13T04:55:32;21.50;95.10
12827;DHT22;66927;48.812;9.118;2023-07-13T04:57:58;21.50;95.10
12827;DHT22;66927;48.812;9.118;2023-07-13T05:00:25;21.50;95.00
12827;DHT22;66927;48.812;9.118;2023-07-13T05:02:53;21.40;94.90
12827;DHT22;66927;48.812;9.118;2023-07-13T05:05:19;21.40;95.00
12827;DHT22;66927;48.812;9.118;2023-07-13T05:07:44;21.40;94.70
12827;DHT22;66927;48.812;9.118;2023-07-13T05:10:10;21.40;94.90
12827;DHT22;66927;48.812;9.118;2023-07-13T05:12:52;21.40;94.80
12827;DHT22;66927;48.812;9.118;2023-07-13T05:15:23;21.40;94.70
12827;DHT22;66927;48.812;9.118;2023-07-13T05:17:49;21.40;94.60
12827;DHT22;66927;48.812;9.118;2023-07-13T05:20:15;21.40;94.90
12827;DHT22;66927;48.812;9.118;2023-07-13T05:22:42;21.40;94.80
12827;DHT22;66927;48.812;9.118;2023-07-13T05:25:09;21.40;94.70
12827;DHT22;66927;48.812;9.118;2023-07-13T05:27:35;21.40;94.60
12827;DHT22;66927;48.812;9.118;2023-07-13T05:30:02;21.40;94.60
12827;DHT22;66927;48.812;9.118;2023-07-13T05:32:28;21.40;94.60
12827;DHT22;66927;48.812;9.118;2023-07-13T05:34:54;21.50;94.60
12827;DHT22;66927;48.812;9.118;2023-07-13T05:37:20;21.50;94.60
12827;DHT22;66927;48.812;9.118;2023-07-13T05:39:46;21.50;94.70
12827;DHT22;66927;48.812;9.118;2023-07-13T05:42:11;21.50;94.10
12827;DHT22;66927;48.812;9.118;2023-07-13T05:44:37;21.40;94.00
12827;DHT22;66927;48.812;9.118;2023-07-13T05:47:03;21.30;93.80
12827;DHT22;66927;48.812;9.118;2023-07-13T05:49:29;21.20;93.80
12827;DHT22;66927;48.812;9.118;2023-07-13T05:51:56;21.20;93.60
12827;DHT22;66927;48.812;9.118;2023-07-13T05:54:22;21.30;93.70
12827;DHT22;66927;48.812;9.118;2023-07-13T05:56:47;21.20;93.50
12827;DHT22;66927;48.812;9.118;2023-07-13T05:59:13;21.30;93.50
12827;DHT22;66927;48.812;9.118;2023-07-13T06:01:39;21.30;93.60
12827;DHT22;66927;48.812;9.118;2023-07-13T06:04:04;21.40;93.80
12827;DHT22;66927;48.812;9.118;2023-07-13T06:06:30;21.40;93.50
12827;DHT22;66927;48.812;9.118;2023-07-13T06:08:57;21.40;93.30
12827;DHT22;66927;48.812;9.118;2023-07-13T06:11:25;21.30;93.00
12827;DHT22;66927;48.812;9.118;2023-07-13T06:13:52;21.30;93.00
12827;DHT22;66927;48.812;9.118;2023-07-13T06:16:18;21.40;92.90
12827;DHT22;66927;48.812;9.118;2023-07-13T06:18:44;21.30;92.50
12827;DHT22;66927;48.812;9.118;2023-07-13T06:21:18;21.20;92.50
12827;DHT22;66927;48.812;9.118;2023-07-13T06:23:46;21.20;92.60
12827;DHT22;66927;48.812;9.118;2023-07-13T06:26:13;21.20;92.30
12827;DHT22;66927;48.812;9.118;2023-07-13T06:28:39;21.20;92.40
12827;DHT22;66927;48.812;9.118;2023-07-13T06:31:09;21.20;92.30
12827;DHT22;66927;48.812;9.118;2023-07-13T06:33:36;21.20;92.60
12827;DHT22;66927;48.812;9.118;2023-07-13T06:36:04;21.00;92.50
12827;DHT22;66927;48.812;9.118;2023-07-13T06:38:30;21.10;92.40
12827;DHT22;66927;48.812;9.118;2023-07-13T06:40:56;21.10;91.90
12827;DHT22;66927;48.812;9.118;2023-07-13T06:43:22;21.20;92.00
12827;DHT22;66927;48.812;9.118;2023-07-13T06:45:49;21.20;91.70
12827;DHT22;66927;48.812;9.118;2023-07-13T06:48:19;21.30;91.70
12827;DHT22;66927;48.812;9.118;2023-07-13T06:50:46;21.40;91.80
12827;DHT22;66927;48.812;9.118;2023-07-13T06:53:12;21.50;91.60
12827;DHT22;66927;48.812;9.118;2023-07-13T06:55:38;21.50;91.20
12827;DHT22;66927;48.812;9.118;2023-07-13T06:58:04;21.50;91.20
12827;DHT22;66927;48.812;9.118;2023-07-13T07:00:30;21.50;91.10
12827;DHT22;66927;48.812;9.118;2023-07-13T07:02:56;21.50;91.00
12827;DHT22;66927;48.812;9.118;2023-07-13T07:05:21;21.50;90.80
12827;DHT22;66927;48.812;9.118;2023-07-13T07:07:51;21.50;90.90
12827;DHT22;66927;48.812;9.118;2023-07-13T07:10:18;21.50;90.60
12827;DHT22;66927;48.812;9.118;2023-07-13T07:12:44;21.40;90.40
12827;DHT22;66927;48.812;9.118;2023-07-13T07:15:12;21.40;90.50
12827;DHT22;66927;48.812;9.118;2023-07-13T07:17:37;21.50;90.80
12827;DHT22;66927;48.812;9.118;2023-07-13T07:20:04;21.50;90.60
12827;DHT22;66927;48.812;9.118;2023-07-13T07:22:30;21.50;90.90
12827;DHT22;66927;48.812;9.118;2023-07-13T07:24:56;21.60;90.80
12827;DHT22;66927;48.812;9.118;2023-07-13T07:27:23;21.60;90.50
12827;DHT22;66927;48.812;9.118;2023-07-13T07:29:50;21.60;90.50
12827;DHT22;66927;48.812;9.118;2023-07-13T07:32:16;21.60;90.00
12827;DHT22;66927;48.812;9.118;2023-07-13T07:34:42;21.70;90.30
12827;DHT22;66927;48.812;9.118;2023-07-13T07:37:11;21.80;90.50
12827;DHT22;66927;48.812;9.118;2023-07-13T07:39:39;21.70;90.30
12827;DHT22;66927;48.812;9.118;2023-07-13T07:42:05;21.70;90.50
12827;DHT22;66927;48.812;9.118;2023-07-13T07:44:33;21.60;90.30
12827;DHT22;66927;48.812;9.118;2023-07-13T07:46:59;21.70;90.50
12827;DHT22;66927;48.812;9.118;2023-07-13T07:49:26;21.70;90.00
12827;DHT22;66927;48.812;9.118;2023-07-13T07:51:52;21.70;90.20
12827;DHT22;66927;48.812;9.118;2023-07-13T07:54:18;21.80;90.10
12827;DHT22;66927;48.812;9.118;2023-07-13T07:56:43;21.90;90.00
12827;DHT22;66927;48.812;9.118;2023-07-13T07:59:09;21.90;89.40
12827;DHT22;66927;48.812;9.118;2023-07-13T08:01:35;22.00;89.30
12827;DHT22;66927;48.812;9.118;2023-07-13T08:04:02;22.10;89.00
12827;DHT22;66927;48.812;9.118;2023-07-13T08:06:27;22.10;90.00
12827;DHT22;66927;48.812;9.118;2023-07-13T08:08:54;22.10;89.80
12827;DHT22;66927;48.812;9.118;2023-07-13T08:11:21;22.20;90.20
12827;DHT22;66927;48.812;9.118;2023-07-13T08:13:50;22.30;90.30
12827;DHT22;66927;48.812;9.118;2023-07-13T08:16:15;22.30;90.30
12827;DHT22;66927;48.812;9.118;2023-07-13T08:18:41;22.40;90.70
12827;DHT22;66927;48.812;9.118;2023-07-13T08:21:08;22.40;90.70
12827;DHT22;66927;48.812;9.118;2023-07-13T08:23:34;22.40;89.90
12827;DHT22;66927;48.812;9.118;2023-07-13T08:26:00;22.50;89.80
12827;DHT22;66927;48.812;9.118;2023-07-13T08:28:29;22.40;89.20
12827;DHT22;66927;48.812;9.118;2023-07-13T08:31:04;22.50;89.80
12827;DHT22;66927;48.812;9.118;2023-07-13T08:33:30;22.50;89.90
12827;DHT22;66927;48.812;9.118;2023-07-13T08:35:56;22.60;90.40
12827;DHT22;66927;48.812;9.118;2023-07-13T08:38:22;22.60;89.90
12827;DHT22;66927;48.812;9.118;2023-07-13T08:40:56;22.60;89.30
12827;DHT22;66927;48.812;9.118;2023-07-13T08:43:35;22.60;88.00
12827;DHT22;66927;48.812;9.118;2023-07-13T08:46:12;22.60;87.40
12827;DHT22;66927;48.812;9.118;2023-07-13T08:48:43;22.60;88.30
12827;DHT22;66927;48.812;9.118;2023-07-13T08:51:28;22.70;89.10
12827;DHT22;66927;48.812;9.118;2023-07-13T08:54:02;22.80;89.00
12827;DHT22;66927;48.812;9.118;2023-07-13T08:56:29;22.90;88.80
12827;DHT22;66927;48.812;9.118;2023-07-13T08:59:16;23.00;88.20
12827;DHT22;66927;48.812;9.118;2023-07-13T09:15:23;23.20;86.10
12827;DHT22;66927;48.812;9.118;2023-07-13T09:17:52;23.20;86.50
12827;DHT22;66927;48.812;9.118;2023-07-13T09:23:14;23.30;85.80
12827;DHT22;66927;48.812;9.118;2023-07-13T09:25:43;23.30;86.50
12827;DHT22;66927;48.812;9.118;2023-07-13T09:28:24;23.20;85.30
12827;DHT22;66927;48.812;9.118;2023-07-13T09:33:40;23.10;85.50
12827;DHT22;66927;48.812;9.118;2023-07-13T09:36:25;23.10;85.00
12827;DHT22;66927;48.812;9.118;2023-07-13T09:42:14;23.30;86.00
12827;DHT22;66927;48.812;9.118;2023-07-13T09:44:51;23.50;86.20
12827;DHT22;66927;48.812;9.118;2023-07-13T09:47:20;23.60;84.10
12827;DHT22;66927;48.812;9.118;2023-07-13T09:49:56;23.60;84.70
12827;DHT22;66927;48.812;9.118;2023-07-13T09:52:24;23.60;84.70
12827;DHT22;66927;48.812;9.118;2023-07-13T09:54:52;23.60;85.00
12827;DHT22;66927;48.812;9.118;2023-07-13T09:57:24;23.60;85.50
12827;DHT22;66927;48.812;9.118;2023-07-13T09:59:53;23.70;85.00
12827;DHT22;66927;48.812;9.118;2023-07-13T10:02:33;23.80;84.20
12827;DHT22;66927;48.812;9.118;2023-07-13T10:05:04;23.80;83.70
12827;DHT22;66927;48.812;9.118;2023-07-13T10:07:32;23.90;83.40
12827;DHT22;66927;48.812;9.118;2023-07-13T10:09:59;23.90;83.10
12827;DHT22;66927;48.812;9.118;2023-07-13T10:12:30;24.00;83.90
12827;DHT22;66927;48.812;9.118;2023-07-13T10:15:01;24.10;84.90
12827;DHT22;66927;48.812;9.118;2023-07-13T10:17:31;24.20;83.30
12827;DHT22;66927;48.812;9.118;2023-07-13T10:20:05;24.30;82.30
12827;DHT22;66927;48.812;9.118;2023-07-13T10:22:54;24.30;82.70
12827;DHT22;66927;48.812;9.118;2023-07-13T10:25:25;24.40;83.40
12827;DHT22;66927;48.812;9.118;2023-07-13T10:27:53;24.40;84.80
12827;DHT22;66927;48.812;9.118;2023-07-13T10:30:25;24.50;82.00
12827;DHT22;66927;48.812;9.118;2023-07-13T10:32:54;24.30;79.70
12827;DHT22;66927;48.812;9.118;2023-07-13T10:35:21;24.30;80.20
12827;DHT22;66927;48.812;9.118;2023-07-13T10:38:03;24.20;80.30
12827;DHT22;66927;48.812;9.118;2023-07-13T10:40:43;24.20;81.00
12827;DHT22;66927;48.812;9.118;2023-07-13T10:43:33;24.30;81.10
12827;DHT22;66927;48.812;9.118;2023-07-13T10:46:04;24.40;81.90
12827;DHT22;66927;48.812;9.118;2023-07-13T10:48:31;24.40;81.60
12827;DHT22;66927;48.812;9.118;2023-07-13T10:51:00;24.50;81.80
12827;DHT22;66927;48.812;9.118;2023-07-13T10:53:35;24.50;82.60
12827;DHT22;66927;48.812;9.118;2023-07-13T10:58:42;24.60;81.90
12827;DHT22;66927;48.812;9.118;2023-07-13T11:01:17;24.60;82.20
12827;DHT22;66927;48.812;9.118;2023-07-13T11:03:50;24.70;82.80
12827;DHT22;66927;48.812;9.118;2023-07-13T11:06:37;24.70;80.50
12827;DHT22;66927;48.812;9.118;2023-07-13T11:09:37;24.70;81.10
12827;DHT22;66927;48.812;9.118;2023-07-13T11:12:54;24.70;80.70
12827;DHT22;66927;48.812;9.118;2023-07-13T11:19:54;24.70;80.20
12827;DHT22;66927;48.812;9.118;2023-07-13T11:25:29;24.90;81.40
12827;DHT22;66927;48.812;9.118;2023-07-13T11:30:39;24.70;79.20
12827;DHT22;66927;48.812;9.118;2023-07-13T11:38:35;24.70;79.70
12827;DHT22;66927;48.812;9.118;2023-07-13T11:41:06;24.60;79.80
12827;DHT22;66927;48.812;9.118;2023-07-13T11:43:32;24.60;79.70
12827;DHT22;66927;48.812;9.118;2023-07-13T11:46:12;24.80;80.10
12827;DHT22;66927;48.812;9.118;2023-07-13T11:48:38;25.00;81.20
12827;DHT22;66927;48.812;9.118;2023-07-13T11:51:05;25.00;78.20
12827;DHT22;66927;48.812;9.118;2023-07-13T11:53:40;25.10;79.20
12827;DHT22;66927;48.812;9.118;2023-07-13T11:56:06;25.20;79.10
12827;DHT22;66927;48.812;9.118;2023-07-13T11:58:32;25.20;77.90
12827;DHT22;66927;48.812;9.118;2023-07-13T12:01:00;25.30;78.90
12827;DHT22;66927;48.812;9.118;2023-07-13T12:03:27;25.40;77.60
12827;DHT22;66927;48.812;9.118;2023-07-13T12:06:02;25.60;78.20
12827;DHT22;66927;48.812;9.118;2023-07-13T12:08:31;25.70;81.10
12827;DHT22;66927;48.812;9.118;2023-07-13T12:11:00;25.70;77.10
12827;DHT22;66927;48.812;9.118;2023-07-13T12:13:36;25.80;79.40
12827;DHT22;66927;48.812;9.118;2023-07-13T12:16:15;25.80;86.50
12827;DHT22;66927;48.812;9.118;2023-07-13T12:18:42;25.70;77.30
12827;DHT22;66927;48.812;9.118;2023-07-13T12:21:13;25.60;79.00
12827;DHT22;66927;48.812;9.118;2023-07-13T12:23:40;25.50;77.60
12827;DHT22;66927;48.812;9.118;2023-07-13T12:26:10;25.40;77.40
12827;DHT22;66927;48.812;9.118;2023-07-13T12:28:48;25.30;76.70
12827;DHT22;66927;48.812;9.118;2023-07-13T12:31:24;25.30;75.20
12827;DHT22;66927;48.812;9.118;2023-07-13T12:36:30;25.40;74.60
12827;DHT22;66927;48.812;9.118;2023-07-13T12:39:00;25.50;76.70
12827;DHT22;66927;48.812;9.118;2023-07-13T12:41:29;25.50;73.50
12827;DHT22;66927;48.812;9.118;2023-07-13T12:43:54;25.50;75.20
12827;DHT22;66927;48.812;9.118;2023-07-13T12:46:23;25.60;77.20
12827;DHT22;66927;48.812;9.118;2023-07-13T12:48:54;25.70;75.70
12827;DHT22;66927;48.812;9.118;2023-07-13T12:51:26;25.80;73.90
12827;DHT22;66927;48.812;9.118;2023-07-13T12:54:07;25.90;76.40
12827;DHT22;66927;48.812;9.118;2023-07-13T12:56:37;26.00;74.40
12827;DHT22;66927;48.812;9.118;2023-07-13T12:59:08;26.00;72.30
12827;DHT22;66927;48.812;9.118;2023-07-13T13:01:41;26.00;72.40
12827;DHT22;66927;48.812;9.118;2023-07-13T13:04:11;26.00;73.40
12827;DHT22;66927;48.812;9.118;2023-07-13T13:06:42;25.90;73.20
12827;DHT22;66927;48.812;9.118;2023-07-13T13:09:13;26.10;76.30
12827;DHT22;66927;48.812;9.118;2023-07-13T13:11:40;26.10;75.60
12827;DHT22;66927;48.812;9.118;2023-07-13T13:14:06;26.10;75.40
12827;DHT22;66927;48.812;9.118;2023-07-13T13:16:45;26.20;80.30
12827;DHT22;66927;48.812;9.118;2023-07-13T13:19:19;26.20;74.20
12827;DHT22;66927;48.812;9.118;2023-07-13T13:21:47;26.10;73.90
12827;DHT22;66927;48.812;9.118;2023-07-13T13:24:17;26.10;74.60
12827;DHT22;66927;48.812;9.118;2023-07-13T13:26:44;26.00;72.60
12827;DHT22;66927;48.812;9.118;2023-07-13T13:29:31;26.00;76.00
12827;DHT22;66927;48.812;9.118;2023-07-13T13:31:58;25.90;72.90
12827;DHT22;66927;48.812;9.118;2023-07-13T13:34:24;25.90;73.70
12827;DHT22;66927;48.812;9.118;2023-07-13T13:36:51;25.90;78.20
12827;DHT22;66927;48.812;9.118;2023-07-13T13:39:25;25.80;76.20
12827;DHT22;66927;48.812;9.118;2023-07-13T13:41:54;25.80;72.60
12827;DHT22;66927;48.812;9.118;2023-07-13T13:44:21;25.90;73.10
12827;DHT22;66927;48.812;9.118;2023-07-13T13:46:50;26.00;74.30
12827;DHT22;66927;48.812;9.118;2023-07-13T13:49:19;26.10;75.10
12827;DHT22;66927;48.812;9.118;2023-07-13T13:51:46;26.30;73.80
12827;DHT22;66927;48.812;9.118;2023-07-13T13:54:13;26.30;71.00
12827;DHT22;66927;48.812;9.118;2023-07-13T13:56:48;26.40;71.60
12827;DHT22;66927;48.812;9.118;2023-07-13T13:59:14;26.40;71.20
12827;DHT22;66927;48.812;9.118;2023-07-13T14:01:42;26.40;71.60
12827;DHT22;66927;48.812;9.118;2023-07-13T14:04:17;26.40;72.00
12827;DHT22;66927;48.812;9.118;2023-07-13T14:06:43;26.50;72.70
12827;DHT22;66927;48.812;9.118;2023-07-13T14:09:12;26.50;71.70
12827;DHT22;66927;48.812;9.118;2023-07-13T14:11:39;26.50;72.00
12827;DHT22;66927;48.812;9.118;2023-07-13T14:14:22;26.50;71.90
12827;DHT22;66927;48.812;9.118;2023-07-13T14:16:50;26.60;71.10
12827;DHT22;66927;48.812;9.118;2023-07-13T14:19:27;26.60;71.50
12827;DHT22;66927;48.812;9.118;2023-07-13T14:21:53;26.60;70.70
12827;DHT22;66927;48.812;9.118;2023-07-13T14:24:19;26.80;68.60
12827;DHT22;66927;48.812;9.118;2023-07-13T14:26:46;26.70;69.10
12827;DHT22;66927;48.812;9.118;2023-07-13T14:29:18;26.70;70.10
12827;DHT22;66927;48.812;9.118;2023-07-13T14:31:44;26.50;68.70
12827;DHT22;66927;48.812;9.118;2023-07-13T14:34:11;26.50;69.20
12827;DHT22;66927;48.812;9.118;2023-07-13T14:36:40;26.50;71.00
12827;DHT22;66927;48.812;9.118;2023-07-13T14:39:33;26.60;70.70
12827;DHT22;66927;48.812;9.118;2023-07-13T14:41:59;26.50;71.00
12827;DHT22;66927;48.812;9.118;2023-07-13T14:44:27;26.50;70.50
12827;DHT22;66927;48.812;9.118;2023-07-13T14:46:55;26.50;71.00
12827;DHT22;66927;48.812;9.118;2023-07-13T14:49:32;26.40;70.70
12827;DHT22;66927;48.812;9.118;2023-07-13T14:52:20;26.50;71.10
12827;DHT22;66927;48.812;9.118;2023-07-13T14:54:47;26.50;71.00
12827;DHT22;66927;48.812;9.118;2023-07-13T14:57:16;26.50;71.50
12827;DHT22;66927;48.812;9.118;2023-07-13T14:59:42;26.50;71.40
12827;DHT22;66927;48.812;9.118;2023-07-13T15:02:31;26.50;71.30
12827;DHT22;66927;48.812;9.118;2023-07-13T15:04:59;26.50;71.10
12827;DHT22;66927;48.812;9.118;2023-07-13T15:07:25;26.30;70.00
12827;DHT22;66927;48.812;9.118;2023-07-13T15:09:51;26.20;70.60
12827;DHT22;66927;48.812;9.118;2023-07-13T15:12:17;26.30;71.90
12827;DHT22;66927;48.812;9.118;2023-07-13T15:14:43;26.30;71.60
12827;DHT22;66927;48.812;9.118;2023-07-13T15:17:39;26.40;71.10
12827;DHT22;66927;48.812;9.118;2023-07-13T15:22:46;26.40;69.90
12827;DHT22;66927;48.812;9.118;2023-07-13T15:25:16;26.40;69.80
12827;DHT22;66927;48.812;9.118;2023-07-13T15:27:41;26.40;70.10
12827;DHT22;66927;48.812;9.118;2023-07-13T15:30:07;26.40;69.90
12827;DHT22;66927;48.812;9.118;2023-07-13T15:32:34;26.30;69.60
12827;DHT22;66927;48.812;9.118;2023-07-13T15:35:00;26.20;69.10
12827;DHT22;66927;48.812;9.118;2023-07-13T15:37:25;26.10;69.80
12827;DHT22;66927;48.812;9.118;2023-07-13T15:39:51;26.10;69.80
12827;DHT22;66927;48.812;9.118;2023-07-13T15:42:22;26.10;70.50
12827;DHT22;66927;48.812;9.118;2023-07-13T15:44:49;26.20;70.50
12827;DHT22;66927;48.812;9.118;2023-07-13T15:47:15;26.20;70.60
12827;DHT22;66927;48.812;9.118;2023-07-13T15:49:43;26.30;70.80
12827;DHT22;66927;48.812;9.118;2023-07-13T15:52:21;26.20;70.00
12827;DHT22;66927;48.812;9.118;2023-07-13T15:54:48;26.20;70.00
12827;DHT22;66927;48.812;9.118;2023-07-13T15:57:14;26.10;69.80
12827;DHT22;66927;48.812;9.118;2023-07-13T15:59:41;26.10;71.10
12827;DHT22;66927;48.812;9.118;2023-07-13T16:02:19;26.10;69.70
12827;DHT22;66927;48.812;9.118;2023-07-13T16:04:46;26.10;69.30
12827;DHT22;66927;48.812;9.118;2023-07-13T16:07:14;26.10;70.00
12827;DHT22;66927;48.812;9.118;2023-07-13T16:09:43;26.10;70.30
12827;DHT22;66927;48.812;9.118;2023-07-13T16:12:13;26.10;70.00
12827;DHT22;66927;48.812;9.118;2023-07-13T16:14:40;26.10;69.50
12827;DHT22;66927;48.812;9.118;2023-07-13T16:17:13;26.10;69.80
12827;DHT22;66927;48.812;9.118;2023-07-13T16:19:39;26.10;70.30
12827;DHT22;66927;48.812;9.118;2023-07-13T16:22:05;26.10;70.50
12827;DHT22;66927;48.812;9.118;2023-07-13T16:24:31;26.10;69.70
12827;DHT22;66927;48.812;9.118;2023-07-13T16:26:58;26.00;69.90
12827;DHT22;66927;48.812;9.118;2023-07-13T16:29:29;25.80;69.70
12827;DHT22;66927;48.812;9.118;2023-07-13T16:32:07;25.70;69.60